Time;durP1;ratioP1;P1;durP2;ratioP2;P2;SDS_P1;SDS_P2;PMS_P1;PMS_P2;Temp;Humidity;BMP_temperature;BMP_pressure;BME280_temperature;BME280_humidity;BME280_pressure;Samples;Min_cycle;Max_cycle;Signal;HPM_P1;HPM_P2
2023/04/15 00:00:37;;;;;;;10.25;4.75;;;6.30;99.90;;;;;;5077265;28;20040;-62
2023/04/15 00:03:05;;;;;;;13.73;5.90;;;6.30;99.90;;;;;;5063865;28;20056;-61
2023/04/15 00:05:32;;;;;;;10.63;5.53;;;6.30;99.90;;;;;;5075764;28;20097;-62
2023/04/15 00:07:58;;;;;;;12.00;4.97;;;6.30;99.90;;;;;;5075214;28;20408;-62
2023/04/15 00:10:27;;;;;;;9.68;5.00;;;6.30;99.90;;;;;;5075172;28;20052;-62
2023/04/15 00:12:54;;;;;;;11.35;5.18;;;6.20;99.90;;;;;;5075576;28;20511;-62
2023/04/15 00:15:21;;;;;;;15.18;5.22;;;6.30;99.90;;;;;;5056779;28;20048;-61
2023/04/15 00:17:50;;;;;;;11.35;6.00;;;6.20;99.90;;;;;;5075438;28;20086;-61
2023/04/15 00:20:17;;;;;;;12.73;6.22;;;6.30;99.90;;;;;;5055282;28;20044;-62
2023/04/15 00:22:45;;;;;;;9.73;6.28;;;6.20;99.90;;;;;;5074842;28;20412;-62
2023/04/15 00:25:12;;;;;;;11.98;6.47;;;6.30;99.90;;;;;;5055757;28;20385;-61
2023/04/15 00:27:41;;;;;;;18.38;6.70;;;6.30;99.90;;;;;;5057339;28;20125;-62
2023/04/15 00:30:08;;;;;;;14.80;6.63;;;6.40;99.90;;;;;;5074777;28;20076;-62
2023/04/15 00:32:35;;;;;;;10.85;6.13;;;6.40;99.90;;;;;;5075152;28;20075;-62
2023/04/15 00:35:02;;;;;;;12.90;6.78;;;6.40;99.90;;;;;;5075199;28;20048;-63
2023/04/15 00:37:29;;;;;;;11.25;6.55;;;6.40;99.90;;;;;;5056285;28;20044;-62
2023/04/15 00:39:56;;;;;;;12.05;7.63;;;6.40;99.90;;;;;;5074888;28;20045;-63
2023/04/15 00:42:24;;;;;;;13.32;7.47;;;6.40;99.90;;;;;;5075076;28;20047;-62
2023/04/15 00:44:53;;;;;;;13.52;7.78;;;6.50;99.90;;;;;;5074423;28;20045;-62
2023/04/15 00:47:21;;;;;;;10.00;6.80;;;6.50;99.90;;;;;;5072467;28;20485;-61
2023/04/15 00:49:48;;;;;;;12.27;6.78;;;6.40;99.90;;;;;;5073977;28;20476;-62
2023/04/15 00:52:15;;;;;;;13.50;7.00;;;6.40;99.90;;;;;;5055047;28;20483;-61
2023/04/15 00:54:42;;;;;;;10.82;6.50;;;6.40;99.90;;;;;;5074682;28;20048;-61
2023/04/15 00:57:09;;;;;;;10.40;6.28;;;6.40;99.90;;;;;;5056226;28;20056;-62
2023/04/15 00:59:36;;;;;;;10.63;6.68;;;6.30;99.90;;;;;;5056774;28;20105;-62
2023/04/15 01:02:05;;;;;;;13.32;6.53;;;6.30;99.90;;;;;;5062176;28;20127;-62
2023/04/15 01:04:32;;;;;;;13.65;7.00;;;6.30;99.90;;;;;;5094439;28;20047;-61
2023/04/15 01:07:00;;;;;;;13.70;6.30;;;6.30;99.90;;;;;;5094769;28;20044;-62
2023/04/15 01:09:27;;;;;;;11.02;6.63;;;6.20;99.90;;;;;;5076293;28;20048;-62
2023/04/15 01:11:54;;;;;;;15.23;7.72;;;6.20;99.90;;;;;;5076261;28;20558;-61
2023/04/15 01:14:21;;;;;;;12.65;7.43;;;6.20;99.90;;;;;;5094943;28;20445;-62
2023/04/15 01:16:48;;;;;;;9.68;6.13;;;6.10;99.90;;;;;;5094845;28;20044;-62
2023/04/15 01:19:17;;;;;;;15.35;7.80;;;6.10;99.90;;;;;;5075997;28;20052;-61
2023/04/15 01:21:45;;;;;;;12.75;6.85;;;6.00;99.90;;;;;;5076408;28;20570;-62
2023/04/15 01:24:13;;;;;;;9.25;7.05;;;6.00;99.90;;;;;;5094551;28;20412;-62
2023/04/15 01:26:42;;;;;;;12.98;7.35;;;5.90;99.90;;;;;;5093692;28;20048;-62
2023/04/15 01:29:08;;;;;;;14.10;7.68;;;6.00;99.90;;;;;;5076579;28;20128;-62
2023/04/15 01:31:36;;;;;;;11.80;7.10;;;5.90;99.90;;;;;;5091933;28;20055;-63
2023/04/15 01:34:03;;;;;;;10.40;6.40;;;5.90;99.90;;;;;;5075584;28;20059;-62
2023/04/15 01:36:30;;;;;;;12.02;7.32;;;5.90;99.90;;;;;;5092362;28;20131;-62
2023/04/15 01:38:58;;;;;;;12.75;7.25;;;5.90;99.90;;;;;;5093558;28;20098;-62
2023/04/15 01:41:26;;;;;;;10.10;6.07;;;5.90;99.90;;;;;;5094199;28;20457;-62
2023/04/15 01:43:55;;;;;;;11.15;7.10;;;5.90;99.90;;;;;;5076123;28;20135;-62
2023/04/15 01:46:22;;;;;;;12.75;6.75;;;5.90;99.90;;;;;;5093444;28;20127;-62
2023/04/15 01:48:49;;;;;;;10.50;6.82;;;5.90;99.90;;;;;;5073981;28;20097;-63
2023/04/15 01:51:16;;;;;;;11.32;6.95;;;5.90;99.90;;;;;;5075377;28;20044;-63
2023/04/15 01:53:43;;;;;;;9.02;6.22;;;5.90;99.90;;;;;;5093317;28;20051;-62
2023/04/15 01:56:10;;;;;;;9.80;6.53;;;5.90;99.90;;;;;;5093957;28;20488;-62
2023/04/15 01:58:37;;;;;;;13.13;7.63;;;5.90;99.90;;;;;;5093685;28;20384;-62
2023/04/15 02:01:05;;;;;;;9.77;7.28;;;5.80;99.90;;;;;;5093091;28;20044;-63
2023/04/15 02:03:33;;;;;;;10.85;6.75;;;5.80;99.90;;;;;;5057728;28;20048;-61
2023/04/15 02:06:00;;;;;;;11.57;7.15;;;5.80;99.90;;;;;;5055749;28;20488;-62
2023/04/15 02:08:27;;;;;;;11.75;6.97;;;5.70;99.90;;;;;;5072365;28;20040;-62
2023/04/15 02:10:54;;;;;;;12.65;7.28;;;5.70;99.90;;;;;;5073097;28;20139;-61
2023/04/15 02:13:21;;;;;;;10.25;6.82;;;5.60;99.90;;;;;;5073485;28;20045;-61
2023/04/15 02:15:48;;;;;;;10.40;6.82;;;5.60;99.90;;;;;;5054954;28;20076;-62
2023/04/15 02:18:16;;;;;;;12.18;7.97;;;5.50;99.90;;;;;;5070745;28;20052;-62
2023/04/15 02:20:44;;;;;;;10.98;6.78;;;5.60;99.90;;;;;;5053555;28;20048;-62
2023/04/15 02:23:11;;;;;;;12.82;7.88;;;5.50;99.90;;;;;;5072614;28;20076;-61
2023/04/15 02:25:38;;;;;;;10.25;7.30;;;5.50;99.90;;;;;;5055546;28;20052;-62
2023/04/15 02:28:06;;;;;;;13.30;8.13;;;5.40;99.90;;;;;;5054201;28;20572;-62
2023/04/15 02:30:33;;;;;;;11.88;7.88;;;5.40;99.90;;;;;;5072708;28;20132;-62
2023/04/15 02:33:00;;;;;;;13.38;8.00;;;5.40;99.90;;;;;;5072955;28;20055;-62
2023/04/15 02:35:28;;;;;;;14.63;9.10;;;5.30;99.90;;;;;;5072198;28;20055;-62
2023/04/15 02:37:55;;;;;;;11.90;8.25;;;5.30;99.90;;;;;;5070704;28;20052;-61
2023/04/15 02:40:22;;;;;;;14.55;8.90;;;5.20;99.90;;;;;;5054561;28;20047;-62
2023/04/15 02:42:49;;;;;;;13.07;8.30;;;5.20;99.90;;;;;;5072106;28;20102;-62
2023/04/15 02:45:18;;;;;;;12.40;8.35;;;5.20;99.90;;;;;;5072584;28;20476;-61
2023/04/15 02:47:46;;;;;;;12.00;8.43;;;5.10;99.90;;;;;;5072636;28;20368;-62
2023/04/15 02:50:14;;;;;;;16.48;9.88;;;5.00;99.90;;;;;;5072051;28;20117;-61
2023/04/15 02:52:43;;;;;;;11.60;8.48;;;4.90;99.90;;;;;;5072367;28;20553;-61
2023/04/15 02:55:10;;;;;;;14.15;8.77;;;4.90;99.90;;;;;;5052972;28;20052;-63
2023/04/15 02:57:38;;;;;;;13.32;8.93;;;4.90;99.90;;;;;;5071546;28;20057;-62
2023/04/15 03:00:08;;;;;;;19.35;9.15;;;4.80;99.90;;;;;;5072148;28;20557;-61
2023/04/15 03:02:35;;;;;;;13.75;8.68;;;4.80;99.90;;;;;;5082096;28;20610;-62
2023/04/15 03:05:03;;;;;;;16.02;10.18;;;4.70;99.90;;;;;;5092060;28;20086;-61
2023/04/15 03:07:30;;;;;;;13.93;9.32;;;4.70;99.90;;;;;;5074644;28;20515;-63
2023/04/15 03:09:58;;;;;;;18.52;9.93;;;4.70;99.90;;;;;;5092140;28;20407;-60
2023/04/15 03:12:25;;;;;;;18.13;9.57;;;4.70;99.90;;;;;;5092247;28;20047;-61
2023/04/15 03:14:52;;;;;;;18.42;10.00;;;4.70;99.90;;;;;;5092655;28;20092;-62
2023/04/15 03:17:19;;;;;;;14.85;8.55;;;4.60;99.90;;;;;;5074005;28;20052;-61
2023/04/15 03:19:46;;;;;;;14.20;9.65;;;4.60;99.90;;;;;;5091471;28;20126;-62
2023/04/15 03:22:13;;;;;;;15.82;9.70;;;4.60;99.90;;;;;;5074507;28;20098;-61
2023/04/15 03:24:39;;;;;;;17.00;10.55;;;4.60;99.90;;;;;;5091687;28;20048;-62
2023/04/15 03:27:08;;;;;;;18.30;10.02;;;4.50;99.90;;;;;;5092329;28;20124;-61
2023/04/15 03:29:35;;;;;;;16.92;10.43;;;4.50;99.90;;;;;;5091986;28;20048;-60
2023/04/15 03:32:02;;;;;;;16.98;10.43;;;4.40;99.90;;;;;;5073907;28;20533;-61
2023/04/15 03:34:28;;;;;;;14.70;10.35;;;4.40;99.90;;;;;;5090361;28;20389;-61
2023/04/15 03:36:56;;;;;;;14.48;9.65;;;4.40;99.90;;;;;;5074363;28;20109;-61
2023/04/15 03:39:23;;;;;;;18.83;10.52;;;4.40;99.90;;;;;;5073512;28;20047;-61
2023/04/15 03:41:50;;;;;;;16.52;11.27;;;4.40;99.90;;;;;;5074282;28;20059;-61
2023/04/15 03:44:18;;;;;;;19.85;12.48;;;4.40;99.90;;;;;;5092212;28;20047;-60
2023/04/15 03:46:45;;;;;;;17.88;11.73;;;4.40;99.90;;;;;;5091408;28;20569;-62
2023/04/15 03:49:13;;;;;;;19.45;10.85;;;4.40;99.90;;;;;;5092026;28;20134;-62
2023/04/15 03:51:40;;;;;;;18.45;12.02;;;4.50;99.90;;;;;;5089927;28;20036;-62
2023/04/15 03:54:07;;;;;;;18.35;11.02;;;4.50;99.90;;;;;;5091233;28;20097;-61
2023/04/15 03:56:34;;;;;;;19.42;12.38;;;4.40;99.90;;;;;;5092042;28;20101;-61
2023/04/15 03:59:01;;;;;;;16.23;11.38;;;5.00;99.90;;;;;;5073785;28;20040;-61
2023/04/15 04:01:29;;;;;;;16.98;11.00;;;4.30;99.90;;;;;;5073321;28;20055;-62
2023/04/15 04:03:56;;;;;;;18.38;11.88;;;4.30;99.90;;;;;;5091976;28;20048;-62
2023/04/15 04:06:23;;;;;;;19.35;12.13;;;4.30;99.90;;;;;;5091996;28;20044;-62
2023/04/15 04:08:50;;;;;;;21.45;13.05;;;4.30;99.90;;;;;;5090952;28;20491;-62
2023/04/15 04:11:17;;;;;;;21.13;13.18;;;4.40;99.90;;;;;;5091786;28;20044;-62
2023/04/15 04:13:43;;;;;;;19.30;13.55;;;4.40;99.90;;;;;;5089111;28;20040;-62
2023/04/15 04:16:10;;;;;;;24.17;14.68;;;4.40;99.90;;;;;;5091799;28;20052;-62
2023/04/15 04:18:38;;;;;;;23.98;15.07;;;4.40;99.90;;;;;;5089676;28;20056;-62
2023/04/15 04:21:05;;;;;;;22.85;14.57;;;4.40;99.90;;;;;;5072657;28;20051;-61
2023/04/15 04:23:33;;;;;;;19.42;12.70;;;4.50;99.90;;;;;;5091920;28;20125;-60
2023/04/15 04:25:59;;;;;;;23.80;13.63;;;4.50;99.90;;;;;;5073747;28;20101;-62
2023/04/15 04:28:26;;;;;;;18.08;12.23;;;4.40;99.90;;;;;;5090919;28;20052;-62
2023/04/15 04:30:53;;;;;;;18.67;11.75;;;4.40;99.90;;;;;;5074216;28;20051;-61
2023/04/15 04:33:20;;;;;;;21.67;13.13;;;4.40;99.90;;;;;;5093323;28;20528;-62
2023/04/15 04:35:49;;;;;;;20.23;11.60;;;4.40;99.90;;;;;;5067755;28;20101;-62
2023/04/15 04:38:16;;;;;;;18.23;11.65;;;4.30;99.90;;;;;;5092259;28;20059;-62
2023/04/15 04:40:43;;;;;;;19.25;12.32;;;4.30;99.90;;;;;;5075902;28;20044;-61
2023/04/15 04:43:09;;;;;;;18.23;11.70;;;4.20;99.90;;;;;;5091745;28;20097;-61
2023/04/15 04:45:36;;;;;;;19.15;12.57;;;4.20;99.90;;;;;;5074829;28;20116;-62
2023/04/15 04:48:05;;;;;;;21.42;12.00;;;4.20;99.90;;;;;;5074305;28;20044;-62
2023/04/15 04:50:32;;;;;;;20.27;12.00;;;4.10;99.90;;;;;;5072797;28;20044;-62
2023/04/15 04:53:01;;;;;;;18.00;11.65;;;4.10;99.90;;;;;;5074440;28;20051;-62
2023/04/15 04:55:28;;;;;;;17.63;11.15;;;4.10;99.90;;;;;;5071941;28;20073;-62
2023/04/15 04:57:55;;;;;;;15.90;11.63;;;4.10;99.90;;;;;;5066709;28;20062;-62
2023/04/15 05:00:22;;;;;;;16.77;11.10;;;4.20;99.90;;;;;;5092879;28;20094;-61
2023/04/15 05:02:48;;;;;;;20.70;11.98;;;4.10;99.90;;;;;;5091634;28;20048;-61
2023/04/15 05:05:15;;;;;;;16.45;11.23;;;4.00;99.90;;;;;;5091942;28;20553;-61
2023/04/15 05:07:42;;;;;;;18.85;12.23;;;4.00;99.90;;;;;;5090781;28;20051;-62
2023/04/15 05:10:11;;;;;;;16.52;11.45;;;4.10;99.90;;;;;;5092600;28;20109;-62
2023/04/15 05:12:38;;;;;;;19.40;12.23;;;4.10;99.90;;;;;;5091974;28;20450;-62
2023/04/15 05:15:06;;;;;;;22.67;13.50;;;4.10;99.90;;;;;;5073043;28;20131;-62
2023/04/15 05:17:34;;;;;;;20.23;12.40;;;4.10;99.90;;;;;;5074385;28;20438;-61
2023/04/15 05:20:01;;;;;;;21.02;13.70;;;4.20;99.90;;;;;;5072770;28;20051;-61
2023/04/15 05:22:28;;;;;;;19.50;13.25;;;4.20;99.90;;;;;;5092265;28;20128;-62
2023/04/15 05:24:55;;;;;;;24.10;14.07;;;4.20;99.90;;;;;;5089428;28;20051;-62
2023/04/15 05:27:23;;;;;;;20.00;12.88;;;4.30;99.90;;;;;;5091802;28;20074;-62
2023/04/15 05:29:50;;;;;;;23.20;13.35;;;4.30;99.90;;;;;;5090830;28;20650;-63
2023/04/15 05:32:17;;;;;;;19.13;12.80;;;4.40;99.90;;;;;;5093338;28;20434;-61
2023/04/15 05:34:44;;;;;;;19.20;13.13;;;4.50;99.90;;;;;;5073872;28;20101;-62
2023/04/15 05:37:11;;;;;;;20.38;12.90;;;4.60;99.90;;;;;;5092525;28;20047;-62
2023/04/15 05:39:38;;;;;;;17.90;12.50;;;4.60;99.90;;;;;;5074247;28;20048;-62
2023/04/15 05:42:05;;;;;;;20.15;12.27;;;4.70;99.90;;;;;;5074314;28;20496;-62
2023/04/15 05:44:34;;;;;;;19.83;12.40;;;4.80;99.90;;;;;;5091473;28;20048;-62
2023/04/15 05:47:02;;;;;;;19.98;11.70;;;4.90;99.90;;;;;;5093206;28;20101;-62
2023/04/15 05:49:29;;;;;;;15.80;11.23;;;5.30;99.90;;;;;;5073262;28;20052;-61
2023/04/15 05:51:56;;;;;;;17.63;11.23;;;5.10;99.90;;;;;;5093304;28;20055;-62
2023/04/15 05:54:23;;;;;;;15.50;10.95;;;5.20;99.90;;;;;;5091057;28;20052;-62
2023/04/15 05:56:50;;;;;;;14.15;11.20;;;5.30;99.90;;;;;;5093411;28;20047;-62
2023/04/15 05:59:17;;;;;;;17.08;11.52;;;5.40;99.90;;;;;;5073305;28;20055;-61
2023/04/15 06:01:45;;;;;;;16.17;9.95;;;5.50;99.90;;;;;;5092347;28;20060;-62
2023/04/15 06:04:12;;;;;;;14.55;11.25;;;5.60;99.90;;;;;;5090264;28;20063;-62
2023/04/15 06:06:39;;;;;;;18.27;10.38;;;5.70;99.90;;;;;;5071601;28;20052;-63
2023/04/15 06:09:06;;;;;;;15.95;10.90;;;5.90;99.90;;;;;;5091887;28;20044;-62
2023/04/15 06:11:33;;;;;;;13.93;10.20;;;6.00;99.90;;;;;;5090986;28;20062;-62
2023/04/15 06:14:00;;;;;;;18.33;10.00;;;6.20;99.90;;;;;;5091298;28;20052;-62
2023/04/15 06:16:27;;;;;;;15.82;11.25;;;6.40;99.90;;;;;;5091491;28;20052;-61
2023/04/15 06:18:55;;;;;;;14.57;9.88;;;6.50;99.90;;;;;;5074032;28;20087;-61
2023/04/15 06:21:22;;;;;;;18.38;10.35;;;6.70;99.90;;;;;;5087280;28;20036;-63
2023/04/15 06:23:49;;;;;;;13.98;9.35;;;6.90;99.90;;;;;;5091820;28;20051;-62
2023/04/15 06:26:16;;;;;;;15.95;9.85;;;7.10;99.90;;;;;;5090133;28;20043;-62
2023/04/15 06:28:42;;;;;;;15.65;10.43;;;7.30;99.90;;;;;;5073513;28;20106;-61
2023/04/15 06:31:09;;;;;;;15.85;10.30;;;7.60;99.90;;;;;;5089064;28;20942;-61
2023/04/15 06:33:36;;;;;;;16.20;10.45;;;8.00;99.90;;;;;;5071902;28;20048;-62
2023/04/15 06:36:05;;;;;;;13.75;9.70;;;8.30;99.90;;;;;;5072339;28;20048;-62
2023/04/15 06:38:32;;;;;;;16.23;10.48;;;8.60;99.90;;;;;;5068183;28;20048;-62
2023/04/15 06:40:59;;;;;;;15.73;9.82;;;8.90;99.90;;;;;;5070890;28;20129;-61
2023/04/15 06:43:26;;;;;;;13.20;9.27;;;9.20;99.90;;;;;;5089445;28;20503;-62
2023/04/15 06:45:53;;;;;;;15.00;8.68;;;9.30;99.90;;;;;;5088519;28;20526;-62
2023/04/15 06:48:19;;;;;;;15.68;9.75;;;9.50;99.90;;;;;;5073606;28;20487;-63
2023/04/15 06:50:46;;;;;;;12.32;8.30;;;9.90;99.90;;;;;;5088346;28;20492;-63
2023/04/15 06:53:14;;;;;;;13.73;8.25;;;10.10;99.90;;;;;;5090196;28;20102;-62
2023/04/15 06:55:42;;;;;;;15.95;8.90;;;10.30;99.90;;;;;;5091731;28;20047;-62
2023/04/15 06:58:08;;;;;;;12.20;7.88;;;10.40;99.90;;;;;;5055479;28;20066;-62
2023/04/15 07:00:37;;;;;;;13.93;8.52;;;10.50;99.90;;;;;;5091781;28;20097;-61
2023/04/15 07:03:04;;;;;;;13.57;9.07;;;10.40;99.90;;;;;;5071949;28;20060;-62
2023/04/15 07:05:32;;;;;;;13.57;8.13;;;10.30;99.90;;;;;;5088203;28;20044;-62
2023/04/15 07:07:59;;;;;;;16.17;8.63;;;10.20;99.90;;;;;;5090205;28;20059;-62
2023/04/15 07:10:27;;;;;;;11.90;7.20;;;10.10;99.90;;;;;;5090913;28;20044;-62
2023/04/15 07:12:54;;;;;;;14.15;7.32;;;10.00;99.90;;;;;;5090094;28;20136;-61
2023/04/15 07:15:22;;;;;;;12.88;7.47;;;10.00;99.90;;;;;;5073443;28;20097;-61
2023/04/15 07:17:49;;;;;;;9.35;6.55;;;10.10;99.90;;;;;;5068605;28;20078;-61
2023/04/15 07:20:16;;;;;;;11.85;7.65;;;10.10;99.90;;;;;;5091292;28;20044;-62
2023/04/15 07:22:43;;;;;;;12.05;6.97;;;10.30;99.90;;;;;;5072659;28;20051;-62
2023/04/15 07:25:10;;;;;;;9.20;6.35;;;10.30;99.90;;;;;;5088828;28;20085;-62
2023/04/15 07:27:38;;;;;;;10.55;6.47;;;10.40;99.90;;;;;;5067975;28;20051;-62
2023/04/15 07:30:06;;;;;;;7.78;5.75;;;10.40;99.90;;;;;;5084073;28;20044;-63
2023/04/15 07:32:33;;;;;;;7.82;5.53;;;10.40;99.90;;;;;;5085952;28;20048;-61
2023/04/15 07:35:01;;;;;;;9.23;5.53;;;10.50;99.90;;;;;;5071522;28;20056;-63
2023/04/15 07:37:28;;;;;;;11.68;5.40;;;10.30;99.90;;;;;;5088582;28;20149;-62
2023/04/15 07:39:55;;;;;;;10.75;5.72;;;10.50;99.90;;;;;;5088921;28;20123;-62
2023/04/15 07:42:22;;;;;;;7.93;4.60;;;10.60;99.90;;;;;;5089284;28;20044;-63
2023/04/15 07:44:51;;;;;;;8.18;4.78;;;10.60;99.90;;;;;;5088563;28;20051;-62
2023/04/15 07:47:18;;;;;;;11.88;6.43;;;10.60;99.90;;;;;;5089764;28;20351;-61
2023/04/15 07:49:45;;;;;;;11.38;5.57;;;10.50;99.90;;;;;;5071248;28;20053;-61
2023/04/15 07:52:12;;;;;;;7.50;5.07;;;10.70;99.90;;;;;;5072592;28;20052;-61
2023/04/15 07:54:38;;;;;;;9.65;5.30;;;10.70;99.90;;;;;;5089803;28;20048;-62
2023/04/15 07:57:06;;;;;;;9.02;5.38;;;10.70;99.90;;;;;;5089017;28;20102;-62
2023/04/15 07:59:33;;;;;;;9.52;5.65;;;10.50;99.90;;;;;;5087837;28;20052;-63
2023/04/15 08:02:02;;;;;;;9.23;5.80;;;10.40;99.90;;;;;;5090623;28;20055;-61
2023/04/15 08:04:29;;;;;;;9.27;6.13;;;10.50;99.90;;;;;;5089356;28;20479;-62
2023/04/15 08:06:56;;;;;;;7.72;4.82;;;10.20;99.90;;;;;;5088227;28;20046;-63
2023/04/15 08:09:23;;;;;;;8.88;4.80;;;10.20;99.90;;;;;;5093410;28;20048;-62
2023/04/15 08:11:50;;;;;;;8.27;4.82;;;10.10;99.90;;;;;;5091230;28;20036;-62
2023/04/15 08:14:17;;;;;;;16.58;5.43;;;10.10;99.90;;;;;;5075116;28;20074;-61
2023/04/15 08:16:44;;;;;;;7.82;4.30;;;10.10;99.90;;;;;;5073507;28;20389;-62
2023/04/15 08:19:12;;;;;;;5.97;4.32;;;10.30;99.90;;;;;;5074806;28;20083;-61
2023/04/15 08:21:39;;;;;;;7.72;4.70;;;10.30;99.90;;;;;;5074577;28;20138;-61
2023/04/15 08:24:06;;;;;;;6.00;4.13;;;10.20;99.90;;;;;;5072922;28;20163;-61
2023/04/15 08:26:33;;;;;;;6.95;4.03;;;10.20;99.90;;;;;;5074355;28;20052;-61
2023/04/15 08:29:00;;;;;;;6.68;3.58;;;10.10;99.90;;;;;;5074647;28;20083;-61
2023/04/15 08:31:29;;;;;;;6.30;4.07;;;10.10;99.90;;;;;;5090143;28;20044;-60
2023/04/15 08:33:57;;;;;;;7.22;3.70;;;10.10;99.90;;;;;;5093406;28;20119;-62
2023/04/15 08:36:25;;;;;;;5.78;3.15;;;10.00;99.90;;;;;;5090863;28;20051;-61
2023/04/15 08:38:52;;;;;;;4.72;2.83;;;9.90;99.90;;;;;;5074030;28;20557;-61
2023/04/15 08:41:23;;;;;;;5.32;2.83;;;9.90;99.90;;;;;;5090857;28;20097;-62
2023/04/15 08:43:54;;;;;;;6.72;3.10;;;9.90;99.90;;;;;;5084471;28;20039;-61
2023/04/15 08:46:22;;;;;;;5.22;2.72;;;9.90;99.90;;;;;;5074041;28;20051;-61
2023/04/15 08:48:50;;;;;;;4.40;2.42;;;9.80;99.90;;;;;;5074008;28;20052;-62
2023/04/15 08:51:17;;;;;;;4.95;3.13;;;9.90;99.90;;;;;;5091626;28;20723;-61
2023/04/15 08:53:46;;;;;;;6.80;3.08;;;10.00;99.90;;;;;;5094017;28;20040;-60
2023/04/15 08:56:15;;;;;;;6.32;2.60;;;10.10;99.90;;;;;;5091014;28;20179;-62
2023/04/15 08:58:43;;;;;;;4.90;2.45;;;10.00;99.90;;;;;;5092431;28;20048;-62
2023/04/15 09:01:12;;;;;;;6.93;2.50;;;10.00;99.90;;;;;;5090754;28;20067;-62
2023/04/15 09:03:39;;;;;;;5.43;2.80;;;9.90;99.90;;;;;;5092525;28;20519;-62
2023/04/15 09:06:06;;;;;;;5.28;2.55;;;9.80;99.90;;;;;;5074868;28;20055;-61
2023/04/15 09:08:34;;;;;;;5.00;2.55;;;9.70;99.90;;;;;;5075055;28;20105;-61
2023/04/15 09:11:03;;;;;;;5.80;2.75;;;9.60;99.90;;;;;;5073485;28;20094;-62
2023/04/15 09:13:30;;;;;;;7.40;3.08;;;9.60;99.90;;;;;;5073634;28;20129;-63
2023/04/15 09:15:57;;;;;;;6.35;2.92;;;9.60;99.90;;;;;;5093987;28;20089;-62
2023/04/15 09:18:30;;;;;;;10.95;2.70;;;9.60;99.90;;;;;;5090000;28;20471;-62
2023/04/15 09:21:07;;;;;;;7.82;2.85;;;9.70;99.90;;;;;;5094036;28;20106;-63
2023/04/15 09:23:35;;;;;;;6.20;3.35;;;9.80;99.90;;;;;;5090601;28;20506;-62
2023/04/15 09:26:03;;;;;;;6.10;2.42;;;9.90;99.90;;;;;;5076040;28;20131;-61
2023/04/15 09:28:31;;;;;;;3.88;2.38;;;9.90;99.90;;;;;;5092060;28;20447;-61
2023/04/15 09:30:58;;;;;;;5.82;2.67;;;9.80;99.90;;;;;;5093315;28;20059;-61
2023/04/15 09:33:26;;;;;;;6.40;3.00;;;9.80;99.90;;;;;;5092145;28;20072;-62
2023/04/15 09:35:58;;;;;;;5.13;2.40;;;9.70;99.90;;;;;;5075742;28;20052;-62
2023/04/15 09:38:25;;;;;;;8.88;2.33;;;9.70;99.90;;;;;;5069923;28;20051;-62
2023/04/15 09:40:52;;;;;;;6.57;2.83;;;9.70;99.90;;;;;;5074785;28;20102;-62
2023/04/15 09:43:20;;;;;;;7.60;2.40;;;9.70;99.90;;;;;;5074992;28;20372;-61
2023/04/15 09:45:49;;;;;;;6.85;2.35;;;9.80;99.90;;;;;;5074209;28;20052;-61
2023/04/15 09:48:19;;;;;;;4.85;2.30;;;10.10;99.90;;;;;;5092473;28;20131;-61
2023/04/15 09:50:47;;;;;;;4.45;1.80;;;10.30;99.90;;;;;;5074220;28;20060;-62
2023/04/15 09:53:17;;;;;;;5.75;2.00;;;10.50;99.90;;;;;;5072369;28;20467;-62
2023/04/15 09:55:46;;;;;;;3.60;1.70;;;10.70;99.90;;;;;;5089814;28;20071;-62
2023/04/15 09:58:22;;;;;;;5.35;1.80;;;10.80;99.90;;;;;;5075348;28;20044;-63
2023/04/15 10:00:51;;;;;;;3.55;1.50;;;10.80;99.90;;;;;;5091179;28;20052;-62
2023/04/15 10:03:21;;;;;;;4.45;1.50;;;10.80;99.90;;;;;;5074599;28;20052;-62
2023/04/15 10:05:50;;;;;;;2.53;1.67;;;10.70;99.90;;;;;;5089216;28;20086;-61
2023/04/15 10:08:20;;;;;;;2.55;1.40;;;10.80;99.90;;;;;;5092234;28;20151;-62
2023/04/15 10:10:47;;;;;;;2.77;1.40;;;10.80;99.90;;;;;;5070450;28;20044;-61
2023/04/15 10:13:16;;;;;;;2.88;1.70;;;10.80;99.90;;;;;;5073422;28;20109;-61
2023/04/15 10:15:49;;;;;;;3.35;1.85;;;10.90;99.90;;;;;;5090090;28;20047;-62
2023/04/15 10:18:19;;;;;;;2.85;1.52;;;10.90;99.90;;;;;;5073123;28;20430;-62
2023/04/15 10:20:47;;;;;;;3.83;1.60;;;10.90;99.90;;;;;;5089342;28;20141;-61
2023/04/15 10:23:15;;;;;;;6.82;1.77;;;11.00;99.90;;;;;;5071695;28;20053;-61
2023/04/15 10:25:43;;;;;;;3.08;1.65;;;10.90;99.90;;;;;;5091175;28;20133;-62
2023/04/15 10:28:10;;;;;;;3.78;1.75;;;10.80;99.90;;;;;;5071860;28;20048;-61
2023/04/15 10:30:38;;;;;;;4.75;1.58;;;10.60;99.90;;;;;;5074474;28;20504;-61
2023/04/15 10:33:09;;;;;;;4.78;2.40;;;10.50;99.90;;;;;;5072914;28;20044;-62
2023/04/15 10:35:36;;;;;;;;;;;10.50;99.90;;;;;;5092544;28;20510;-62
2023/04/15 10:38:23;;;;;;;4.13;1.92;;;10.50;99.90;;;;;;5088121;28;19966;-61
2023/04/15 10:40:51;;;;;;;4.00;1.88;;;10.60;99.90;;;;;;5090452;28;20101;-61
2023/04/15 10:43:26;;;;;;;4.30;2.03;;;10.60;99.90;;;;;;5072404;28;20075;-62
2023/04/15 10:45:54;;;;;;;3.20;1.70;;;10.60;99.90;;;;;;5075203;28;20380;-62
2023/04/15 10:48:22;;;;;;;3.05;2.00;;;10.60;99.90;;;;;;5091429;28;20071;-61
2023/04/15 10:50:57;;;;;;;7.88;2.28;;;10.60;99.90;;;;;;5090321;28;20047;-61
2023/04/15 10:53:28;;;;;;;4.57;2.20;;;10.60;99.90;;;;;;5091321;28;20040;-61
2023/04/15 10:55:56;;;;;;;7.90;2.50;;;10.60;99.90;;;;;;5092426;28;20048;-61
2023/04/15 10:58:24;;;;;;;8.40;2.55;;;10.50;99.90;;;;;;5074529;28;20178;-62
2023/04/15 11:00:52;;;;;;;5.45;2.53;;;10.50;99.90;;;;;;5092600;28;20047;-61
2023/04/15 11:03:38;;;;;;;7.13;2.53;;;10.50;99.90;;;;;;5073672;28;20044;-62
2023/04/15 11:06:06;;;;;;;5.18;1.70;;;10.60;99.90;;;;;;5074084;28;20048;-61
2023/04/15 11:08:57;;;;;;;6.20;2.50;;;10.50;99.90;;;;;;5092565;28;20570;-61
2023/04/15 11:12:04;;;;;;;4.53;2.20;;;10.60;99.90;;;;;;5092333;28;20048;-62
2023/04/15 11:14:33;;;;;;;9.90;2.72;;;10.60;99.90;;;;;;5090563;28;20125;-61
2023/04/15 11:17:00;;;;;;;6.05;2.05;;;10.50;99.90;;;;;;5074026;28;20499;-61
2023/04/15 11:19:36;;;;;;;7.93;2.05;;;10.60;99.90;;;;;;5092478;28;20109;-62
2023/04/15 11:22:07;;;;;;;6.25;1.95;;;10.80;99.90;;;;;;5073384;28;20105;-62
2023/04/15 11:24:34;;;;;;;6.25;2.40;;;11.00;99.90;;;;;;5072162;28;20548;-62
2023/04/15 11:27:02;;;;;;;5.45;2.30;;;11.20;99.90;;;;;;5074465;28;20142;-62
2023/04/15 11:29:30;;;;;;;3.85;1.70;;;11.30;99.90;;;;;;5074409;28;20047;-62
2023/04/15 11:32:06;;;;;;;5.20;1.92;;;11.40;99.90;;;;;;5091502;28;20125;-62
2023/04/15 11:34:35;;;;;;;5.07;2.08;;;11.40;99.90;;;;;;5092162;28;20052;-60
2023/04/15 11:37:05;;;;;;;3.63;2.08;;;11.30;99.90;;;;;;5091679;28;20089;-62
2023/04/15 11:39:32;;;;;;;4.47;2.10;;;11.20;99.90;;;;;;5074475;28;20506;-62
2023/04/15 11:41:59;;;;;;;6.45;2.22;;;11.20;99.90;;;;;;5073597;28;20079;-62
2023/04/15 11:44:25;;;;;;;8.18;2.00;;;11.20;99.90;;;;;;5091499;28;20407;-61
2023/04/15 11:46:52;;;;;;;3.25;1.60;;;11.30;99.90;;;;;;5072004;28;20450;-62
2023/04/15 11:49:30;;;;;;;6.15;1.98;;;11.30;99.90;;;;;;5091927;28;20087;-61
2023/04/15 11:51:59;;;;;;;9.48;2.20;;;11.20;99.90;;;;;;5073508;28;20071;-60
2023/04/15 11:54:26;;;;;;;7.78;2.30;;;11.20;99.90;;;;;;5073894;28;20048;-61
2023/04/15 11:56:53;;;;;;;8.13;2.28;;;11.20;99.90;;;;;;5092070;28;20099;-62
2023/04/15 11:59:20;;;;;;;7.60;2.25;;;11.10;99.90;;;;;;5073374;28;20132;-61
2023/04/15 12:01:47;;;;;;;10.15;2.83;;;11.00;99.90;;;;;;5089639;28;20051;-61
2023/04/15 12:04:16;;;;;;;7.53;2.70;;;11.00;99.90;;;;;;5092038;28;20089;-61
2023/04/15 12:06:43;;;;;;;6.35;2.38;;;11.00;99.90;;;;;;5091550;28;20040;-62
2023/04/15 12:09:13;;;;;;;7.18;2.47;;;11.10;99.90;;;;;;5091803;28;20089;-61
2023/04/15 12:11:43;;;;;;;9.82;1.85;;;10.90;99.90;;;;;;5073846;28;20056;-61
2023/04/15 12:14:13;;;;;;;8.77;2.63;;;11.10;99.90;;;;;;5091429;28;20097;-61
2023/04/15 12:16:42;;;;;;;7.93;1.97;;;11.10;99.90;;;;;;5072163;28;20298;-62
2023/04/15 12:19:11;;;;;;;6.18;2.13;;;11.10;99.90;;;;;;5073102;28;20289;-61
2023/04/15 12:21:39;;;;;;;5.57;1.85;;;11.10;99.90;;;;;;5091188;28;20411;-62
2023/04/15 12:24:07;;;;;;;9.65;1.80;;;11.10;99.90;;;;;;5089575;28;20043;-62
2023/04/15 12:26:38;;;;;;;4.38;1.80;;;11.20;99.90;;;;;;5067525;28;20068;-63
2023/04/15 12:29:05;;;;;;;;;;;11.30;99.90;;;;;;5087299;28;20449;-62
2023/04/15 12:31:33;;;;;;;8.13;2.28;;;11.40;99.90;;;;;;5085747;28;19928;-62
2023/04/15 12:34:00;;;;;;;7.00;1.92;;;11.40;99.90;;;;;;5066504;28;20483;-61
2023/04/15 12:36:29;;;;;;;6.60;1.60;;;11.50;99.90;;;;;;5067786;28;20048;-62
2023/04/15 12:38:56;;;;;;;4.20;1.77;;;11.50;99.90;;;;;;5072624;28;20126;-62
2023/04/15 12:41:23;;;;;;;9.30;2.22;;;11.50;99.90;;;;;;5087305;28;20040;-62
2023/04/15 12:43:51;;;;;;;8.75;2.47;;;11.40;99.90;;;;;;5090805;28;20093;-63
2023/04/15 12:46:19;;;;;;;7.75;2.45;;;11.50;99.90;;;;;;5070909;28;20549;-61
2023/04/15 12:48:46;;;;;;;9.93;3.38;;;11.40;99.90;;;;;;5071738;28;20052;-62